sensor_id;sensor_type;location;lat;lon;timestamp;pressure;altitude;pressure_sealevel;temperature;humidity
84936;BME280;75210;52.210;20.902;2024-01-15T00:00:06;98210.22;;;1.94;84.93
84936;BME280;75210;52.210;20.902;2024-01-15T00:01:07;98221.03;;;2.02;85.01
84936;BME280;75210;52.210;20.902;2024-01-15T00:02:09;98168.56;;;1.78;84.54
84936;BME280;75210;52.210;20.902;2024-01-15T00:03:09;98148.66;;;1.62;84.65
84936;BME280;75210;52.210;20.902;2024-01-15T00:04:09;98177.97;;;1.81;84.50
84936;BME280;75210;52.210;20.902;2024-01-15T00:05:10;98194.84;;;1.90;84.71
84936;BME280;75210;52.210;20.902;2024-01-15T00:06:12;98218.44;;;2.02;84.57
84936;BME280;75210;52.210;20.902;2024-01-15T00:07:12;98210.16;;;2.11;84.69
84936;BME280;75210;52.210;20.902;2024-01-15T00:08:13;98201.91;;;2.03;84.46
84936;BME280;75210;52.210;20.902;2024-01-15T00:09:15;98158.88;;;1.82;84.83
84936;BME280;75210;52.210;20.902;2024-01-15T00:10:15;98191.88;;;1.97;84.22
84936;BME280;75210;52.210;20.902;2024-01-15T00:11:16;98076.09;;;1.26;84.48
84936;BME280;75210;52.210;20.902;2024-01-15T00:12:19;98149.47;;;1.79;84.54
84936;BME280;75210;52.210;20.902;2024-01-15T00:13:19;98126.19;;;1.61;84.79
84936;BME280;75210;52.210;20.902;2024-01-15T00:14:20;98198.31;;;2.06;85.33
84936;BME280;75210;52.210;20.902;2024-01-15T00:15:22;98078.88;;;1.38;84.74
84936;BME280;75210;52.210;20.902;2024-01-15T00:16:23;98182.66;;;2.07;84.86
84936;BME280;75210;52.210;20.902;2024-01-15T00:17:23;98189.34;;;1.96;85.73
84936;BME280;75210;52.210;20.902;2024-01-15T00:18:23;98182.19;;;1.99;85.61
84936;BME280;75210;52.210;20.902;2024-01-15T00:19:24;98185.63;;;2.00;85.42
84936;BME280;75210;52.210;20.902;2024-01-15T00:20:35;98169.47;;;1.95;85.67
84936;BME280;75210;52.210;20.902;2024-01-15T00:21:35;98122.78;;;1.60;85.58
84936;BME280;75210;52.210;20.902;2024-01-15T00:22:36;98173.13;;;1.91;85.57
84936;BME280;75210;52.210;20.902;2024-01-15T00:23:36;98072.19;;;1.34;85.09
84936;BME280;75210;52.210;20.902;2024-01-15T00:24:38;98172.63;;;2.00;85.40
84936;BME280;75210;52.210;20.902;2024-01-15T00:25:39;98130.59;;;1.76;84.60
84936;BME280;75210;52.210;20.902;2024-01-15T00:26:39;98117.38;;;1.80;84.66
84936;BME280;75210;52.210;20.902;2024-01-15T00:27:44;98099.00;;;1.68;84.59
84936;BME280;75210;52.210;20.902;2024-01-15T00:28:45;98095.78;;;1.63;84.70
84936;BME280;75210;52.210;20.902;2024-01-15T00:29:47;98158.81;;;1.99;84.62
84936;BME280;75210;52.210;20.902;2024-01-15T00:30:47;98151.34;;;1.93;84.73
84936;BME280;75210;52.210;20.902;2024-01-15T00:31:48;98142.03;;;1.89;84.95
84936;BME280;75210;52.210;20.902;2024-01-15T00:32:49;98143.63;;;1.92;85.09
84936;BME280;75210;52.210;20.902;2024-01-15T00:33:50;98084.53;;;1.47;85.00
84936;BME280;75210;52.210;20.902;2024-01-15T00:34:50;98098.94;;;1.52;85.33
84936;BME280;75210;52.210;20.902;2024-01-15T00:35:51;98157.31;;;1.95;84.45
84936;BME280;75210;52.210;20.902;2024-01-15T00:36:52;98151.69;;;2.03;84.52
84936;BME280;75210;52.210;20.902;2024-01-15T00:37:53;98096.31;;;1.69;84.42
84936;BME280;75210;52.210;20.902;2024-01-15T00:38:54;98153.53;;;2.01;84.57
84936;BME280;75210;52.210;20.902;2024-01-15T00:39:54;98150.84;;;2.02;84.30
84936;BME280;75210;52.210;20.902;2024-01-15T00:40:54;98122.63;;;1.79;84.90
84936;BME280;75210;52.210;20.902;2024-01-15T00:41:55;98147.66;;;1.97;85.11
84936;BME280;75210;52.210;20.902;2024-01-15T00:42:57;98143.81;;;2.04;84.71
84936;BME280;75210;52.210;20.902;2024-01-15T00:43:58;98139.53;;;2.03;84.64
84936;BME280;75210;52.210;20.902;2024-01-15T00:44:58;98081.03;;;1.63;84.81
84936;BME280;75210;52.210;20.902;2024-01-15T00:46:01;98121.06;;;1.92;84.77
84936;BME280;75210;52.210;20.902;2024-01-15T00:47:02;98103.03;;;1.89;84.13
84936;BME280;75210;52.210;20.902;2024-01-15T00:48:03;98127.06;;;2.10;84.28
84936;BME280;75210;52.210;20.902;2024-01-15T00:49:04;98131.13;;;1.98;85.12
84936;BME280;75210;52.210;20.902;2024-01-15T00:50:05;98131.72;;;2.03;84.86
84936;BME280;75210;52.210;20.902;2024-01-15T00:51:05;98135.72;;;1.77;85.89
84936;BME280;75210;52.210;20.902;2024-01-15T00:52:06;98128.59;;;1.81;85.89
84936;BME280;75210;52.210;20.902;2024-01-15T00:53:06;98133.06;;;1.95;86.17
84936;BME280;75210;52.210;20.902;2024-01-15T00:54:08;98135.63;;;1.79;86.32
84936;BME280;75210;52.210;20.902;2024-01-15T00:55:08;98123.78;;;1.73;86.29
84936;BME280;75210;52.210;20.902;2024-01-15T00:56:09;98140.22;;;1.74;87.06
84936;BME280;75210;52.210;20.902;2024-01-15T00:57:09;98145.75;;;1.68;87.68
84936;BME280;75210;52.210;20.902;2024-01-15T00:58:12;98135.72;;;1.77;87.08
84936;BME280;75210;52.210;20.902;2024-01-15T00:59:12;98016.66;;;1.04;87.53
84936;BME280;75210;52.210;20.902;2024-01-15T01:00:13;98017.84;;;0.98;87.54
84936;BME280;75210;52.210;20.902;2024-01-15T01:01:14;98012.88;;;0.94;87.72
84936;BME280;75210;52.210;20.902;2024-01-15T01:02:14;98050.59;;;1.17;87.66
84936;BME280;75210;52.210;20.902;2024-01-15T01:03:15;98074.72;;;1.36;87.90
84936;BME280;75210;52.210;20.902;2024-01-15T01:04:16;98124.63;;;1.74;87.60
84936;BME280;75210;52.210;20.902;2024-01-15T01:05:16;98063.22;;;1.40;87.62
84936;BME280;75210;52.210;20.902;2024-01-15T01:06:17;98091.06;;;1.54;87.50
84936;BME280;75210;52.210;20.902;2024-01-15T01:07:17;98117.69;;;1.74;87.75
84936;BME280;75210;52.210;20.902;2024-01-15T01:08:18;98074.50;;;1.56;87.31
84936;BME280;75210;52.210;20.902;2024-01-15T01:09:19;98061.63;;;1.37;87.38
84936;BME280;75210;52.210;20.902;2024-01-15T01:10:19;98001.72;;;0.92;87.45
84936;BME280;75210;52.210;20.902;2024-01-15T01:11:20;98103.34;;;1.67;87.88
84936;BME280;75210;52.210;20.902;2024-01-15T01:12:20;98098.16;;;1.67;87.54
84936;BME280;75210;52.210;20.902;2024-01-15T01:13:23;98110.72;;;1.75;87.20
84936;BME280;75210;52.210;20.902;2024-01-15T01:14:23;98109.03;;;1.74;87.78
84936;BME280;75210;52.210;20.902;2024-01-15T01:15:23;98068.28;;;1.43;87.54
84936;BME280;75210;52.210;20.902;2024-01-15T01:16:24;98080.19;;;1.47;87.79
84936;BME280;75210;52.210;20.902;2024-01-15T01:17:25;98071.16;;;1.37;88.31
84936;BME280;75210;52.210;20.902;2024-01-15T01:18:26;98113.38;;;1.58;88.31
84936;BME280;75210;52.210;20.902;2024-01-15T01:19:27;98061.97;;;1.31;88.41
84936;BME280;75210;52.210;20.902;2024-01-15T01:20:27;98083.16;;;1.39;88.82
84936;BME280;75210;52.210;20.902;2024-01-15T01:21:28;98110.72;;;1.59;88.21
84936;BME280;75210;52.210;20.902;2024-01-15T01:22:29;98015.06;;;1.01;88.03
84936;BME280;75210;52.210;20.902;2024-01-15T01:23:30;98055.00;;;1.32;88.12
84936;BME280;75210;52.210;20.902;2024-01-15T01:24:30;98088.25;;;1.58;87.99
84936;BME280;75210;52.210;20.902;2024-01-15T01:25:31;97979.84;;;0.80;88.25
84936;BME280;75210;52.210;20.902;2024-01-15T01:26:31;98031.81;;;1.12;88.13
84936;BME280;75210;52.210;20.902;2024-01-15T01:27:32;98043.59;;;1.19;88.22
84936;BME280;75210;52.210;20.902;2024-01-15T01:28:34;98099.28;;;1.62;88.27
84936;BME280;75210;52.210;20.902;2024-01-15T01:29:34;98097.63;;;1.61;87.99
84936;BME280;75210;52.210;20.902;2024-01-15T01:30:35;98068.63;;;1.53;88.37
84936;BME280;75210;52.210;20.902;2024-01-15T01:31:35;98108.31;;;1.72;87.92
84936;BME280;75210;52.210;20.902;2024-01-15T01:32:36;98074.16;;;1.62;87.34
84936;BME280;75210;52.210;20.902;2024-01-15T01:33:38;98088.91;;;1.62;87.04
84936;BME280;75210;52.210;20.902;2024-01-15T01:34:40;98091.97;;;1.70;87.60
84936;BME280;75210;52.210;20.902;2024-01-15T01:35:41;98093.44;;;1.74;87.42
84936;BME280;75210;52.210;20.902;2024-01-15T01:36:41;98079.34;;;1.62;87.70
84936;BME280;75210;52.210;20.902;2024-01-15T01:37:42;98096.88;;;1.74;87.63
84936;BME280;75210;52.210;20.902;2024-01-15T01:38:42;98100.31;;;1.75;86.68
84936;BME280;75210;52.210;20.902;2024-01-15T01:39:43;98087.25;;;1.76;87.42
84936;BME280;75210;52.210;20.902;2024-01-15T01:40:44;98078.50;;;1.62;86.96
84936;BME280;75210;52.210;20.902;2024-01-15T01:41:44;98093.56;;;1.72;86.96
84936;BME280;75210;52.210;20.902;2024-01-15T01:42:45;98085.41;;;1.78;87.01
84936;BME280;75210;52.210;20.902;2024-01-15T01:43:47;98083.50;;;1.82;87.09
84936;BME280;75210;52.210;20.902;2024-01-15T01:44:47;98080.22;;;1.78;86.67
84936;BME280;75210;52.210;20.902;2024-01-15T01:45:48;98081.56;;;1.86;86.25
84936;BME280;75210;52.210;20.902;2024-01-15T01:46:48;98073.34;;;1.77;86.47
84936;BME280;75210;52.210;20.902;2024-01-15T01:47:49;98076.97;;;1.91;86.53
84936;BME280;75210;52.210;20.902;2024-01-15T01:48:51;98068.31;;;1.90;86.54
84936;BME280;75210;52.210;20.902;2024-01-15T01:49:52;98029.00;;;1.65;85.80
84936;BME280;75210;52.210;20.902;2024-01-15T01:50:53;98067.91;;;1.82;86.88
84936;BME280;75210;52.210;20.902;2024-01-15T01:51:57;98064.88;;;1.74;86.85
84936;BME280;75210;52.210;20.902;2024-01-15T01:52:57;98062.88;;;1.79;86.54
84936;BME280;75210;52.210;20.902;2024-01-15T01:53:58;98068.41;;;1.73;87.24
84936;BME280;75210;52.210;20.902;2024-01-15T01:55:00;98006.81;;;1.26;87.17
84936;BME280;75210;52.210;20.902;2024-01-15T01:56:02;98063.75;;;1.62;87.69
84936;BME280;75210;52.210;20.902;2024-01-15T01:57:03;98002.41;;;1.28;87.33
84936;BME280;75210;52.210;20.902;2024-01-15T01:58:05;98062.38;;;1.72;87.40
84936;BME280;75210;52.210;20.902;2024-01-15T01:59:09;98059.59;;;1.75;86.79
84936;BME280;75210;52.210;20.902;2024-01-15T02:00:12;98026.47;;;1.63;86.23
84936;BME280;75210;52.210;20.902;2024-01-15T02:01:13;98060.88;;;1.84;86.45
84936;BME280;75210;52.210;20.902;2024-01-15T02:02:15;98060.69;;;1.87;86.25
84936;BME280;75210;52.210;20.902;2024-01-15T02:03:24;98057.91;;;1.74;86.51
84936;BME280;75210;52.210;20.902;2024-01-15T02:04:26;98039.16;;;1.69;86.61
84936;BME280;75210;52.210;20.902;2024-01-15T02:05:27;98054.06;;;1.82;85.88
84936;BME280;75210;52.210;20.902;2024-01-15T02:06:28;98020.63;;;1.60;86.43
84936;BME280;75210;52.210;20.902;2024-01-15T02:07:28;98056.75;;;1.80;86.24
84936;BME280;75210;52.210;20.902;2024-01-15T02:08:28;98060.13;;;1.82;86.39
84936;BME280;75210;52.210;20.902;2024-01-15T02:09:29;98047.88;;;1.84;86.11
84936;BME280;75210;52.210;20.902;2024-01-15T02:10:29;98017.69;;;1.66;85.95
84936;BME280;75210;52.210;20.902;2024-01-15T02:11:30;98049.72;;;1.82;85.95
84936;BME280;75210;52.210;20.902;2024-01-15T02:12:30;98051.56;;;1.80;86.30
84936;BME280;75210;52.210;20.902;2024-01-15T02:13:31;98047.63;;;1.73;86.27
84936;BME280;75210;52.210;20.902;2024-01-15T02:14:33;98050.97;;;1.75;86.82
84936;BME280;75210;52.210;20.902;2024-01-15T02:15:34;98040.16;;;1.83;85.87
84936;BME280;75210;52.210;20.902;2024-01-15T02:16:34;98042.16;;;1.77;86.41
84936;BME280;75210;52.210;20.902;2024-01-15T02:17:35;98040.63;;;1.73;86.65
84936;BME280;75210;52.210;20.902;2024-01-15T02:18:41;98039.41;;;1.80;86.39
84936;BME280;75210;52.210;20.902;2024-01-15T02:19:42;98025.91;;;1.74;85.96
84936;BME280;75210;52.210;20.902;2024-01-15T02:20:42;98037.66;;;1.81;85.46
84936;BME280;75210;52.210;20.902;2024-01-15T02:21:43;98031.78;;;1.77;86.32
84936;BME280;75210;52.210;20.902;2024-01-15T02:22:44;98024.50;;;1.84;85.59
84936;BME280;75210;52.210;20.902;2024-01-15T02:23:47;98037.81;;;1.78;85.28
84936;BME280;75210;52.210;20.902;2024-01-15T02:24:48;98030.41;;;1.86;85.47
84936;BME280;75210;52.210;20.902;2024-01-15T02:25:48;98024.06;;;1.92;84.67
84936;BME280;75210;52.210;20.902;2024-01-15T02:26:49;98024.13;;;1.90;85.04
84936;BME280;75210;52.210;20.902;2024-01-15T02:27:50;98023.72;;;1.82;84.98
84936;BME280;75210;52.210;20.902;2024-01-15T02:28:51;97975.63;;;1.59;85.13
84936;BME280;75210;52.210;20.902;2024-01-15T02:29:51;98016.03;;;1.80;85.58
84936;BME280;75210;52.210;20.902;2024-01-15T02:30:52;97986.09;;;1.58;85.58
84936;BME280;75210;52.210;20.902;2024-01-15T02:31:52;98013.59;;;1.77;85.53
84936;BME280;75210;52.210;20.902;2024-01-15T02:32:53;97990.94;;;1.64;85.37
84936;BME280;75210;52.210;20.902;2024-01-15T02:33:53;98012.75;;;1.77;85.27
84936;BME280;75210;52.210;20.902;2024-01-15T02:34:54;98012.41;;;1.83;85.27
84936;BME280;75210;52.210;20.902;2024-01-15T02:35:54;98000.91;;;1.87;85.29
84936;BME280;75210;52.210;20.902;2024-01-15T02:36:54;98003.88;;;1.81;85.06
84936;BME280;75210;52.210;20.902;2024-01-15T02:37:56;98011.81;;;1.78;85.87
84936;BME280;75210;52.210;20.902;2024-01-15T02:38:58;98006.31;;;1.84;85.35
84936;BME280;75210;52.210;20.902;2024-01-15T02:39:58;98006.09;;;1.87;85.08
84936;BME280;75210;52.210;20.902;2024-01-15T02:40:59;97997.47;;;1.87;84.62
84936;BME280;75210;52.210;20.902;2024-01-15T02:41:59;98008.72;;;1.87;84.65
84936;BME280;75210;52.210;20.902;2024-01-15T02:43:00;97987.94;;;1.71;84.97
84936;BME280;75210;52.210;20.902;2024-01-15T02:44:00;98001.25;;;1.97;83.76
84936;BME280;75210;52.210;20.902;2024-01-15T02:45:00;97967.25;;;1.70;84.59
84936;BME280;75210;52.210;20.902;2024-01-15T02:46:01;97998.00;;;1.93;84.61
84936;BME280;75210;52.210;20.902;2024-01-15T02:47:01;97992.38;;;1.85;84.45
84936;BME280;75210;52.210;20.902;2024-01-15T02:48:02;97996.16;;;1.79;85.08
84936;BME280;75210;52.210;20.902;2024-01-15T02:49:02;97982.84;;;1.70;85.19
84936;BME280;75210;52.210;20.902;2024-01-15T02:50:04;97996.06;;;1.81;85.02
84936;BME280;75210;52.210;20.902;2024-01-15T02:51:04;97985.75;;;1.79;84.77
84936;BME280;75210;52.210;20.902;2024-01-15T02:52:05;97980.63;;;1.78;85.42
84936;BME280;75210;52.210;20.902;2024-01-15T02:53:06;97991.03;;;1.78;85.11
84936;BME280;75210;52.210;20.902;2024-01-15T02:54:09;97985.84;;;1.78;84.97
84936;BME280;75210;52.210;20.902;2024-01-15T02:55:09;97969.84;;;1.70;84.98
84936;BME280;75210;52.210;20.902;2024-01-15T02:56:10;97973.34;;;1.69;85.12
84936;BME280;75210;52.210;20.902;2024-01-15T02:57:10;97897.88;;;1.25;85.14
84936;BME280;75210;52.210;20.902;2024-01-15T02:58:11;97943.09;;;1.52;85.90
84936;BME280;75210;52.210;20.902;2024-01-15T02:59:11;97965.13;;;1.76;85.00
84936;BME280;75210;52.210;20.902;2024-01-15T03:00:12;97954.16;;;1.71;85.36
84936;BME280;75210;52.210;20.902;2024-01-15T03:01:12;97962.81;;;1.72;85.09
84936;BME280;75210;52.210;20.902;2024-01-15T03:02:13;97966.13;;;1.74;85.21
84936;BME280;75210;52.210;20.902;2024-01-15T03:03:13;97950.53;;;1.74;85.46
84936;BME280;75210;52.210;20.902;2024-01-15T03:04:14;97896.50;;;1.49;84.91
84936;BME280;75210;52.210;20.902;2024-01-15T03:05:14;97953.72;;;1.79;84.80
84936;BME280;75210;52.210;20.902;2024-01-15T03:06:15;97899.78;;;1.37;84.82
84936;BME280;75210;52.210;20.902;2024-01-15T03:07:15;97898.28;;;1.49;84.91
84936;BME280;75210;52.210;20.902;2024-01-15T03:08:16;97927.50;;;1.68;84.47
84936;BME280;75210;52.210;20.902;2024-01-15T03:09:19;97942.75;;;1.74;85.21
84936;BME280;75210;52.210;20.902;2024-01-15T03:10:20;97945.78;;;1.82;84.59
84936;BME280;75210;52.210;20.902;2024-01-15T03:11:20;97953.97;;;1.74;84.77
84936;BME280;75210;52.210;20.902;2024-01-15T03:12:21;97948.91;;;1.73;85.50
84936;BME280;75210;52.210;20.902;2024-01-15T03:13:21;97887.00;;;1.34;86.21
84936;BME280;75210;52.210;20.902;2024-01-15T03:14:22;97928.59;;;1.64;86.33
84936;BME280;75210;52.210;20.902;2024-01-15T03:15:22;97929.19;;;1.69;86.87
84936;BME280;75210;52.210;20.902;2024-01-15T03:16:23;97937.75;;;1.55;87.73
84936;BME280;75210;52.210;20.902;2024-01-15T03:17:23;97850.06;;;0.97;87.89
84936;BME280;75210;52.210;20.902;2024-01-15T03:18:24;97855.66;;;1.05;87.71
84936;BME280;75210;52.210;20.902;2024-01-15T03:19:24;97883.97;;;1.26;88.21
84936;BME280;75210;52.210;20.902;2024-01-15T03:20:25;97814.28;;;0.87;87.47
84936;BME280;75210;52.210;20.902;2024-01-15T03:21:26;97924.25;;;1.49;88.44
84936;BME280;75210;52.210;20.902;2024-01-15T03:22:26;97930.56;;;1.60;88.23
84936;BME280;75210;52.210;20.902;2024-01-15T03:23:27;97800.06;;;0.78;88.32
84936;BME280;75210;52.210;20.902;2024-01-15T03:24:29;97879.97;;;1.20;88.57
84936;BME280;75210;52.210;20.902;2024-01-15T03:25:30;97801.44;;;0.69;88.21
84936;BME280;75210;52.210;20.902;2024-01-15T03:26:30;97879.72;;;1.09;88.63
84936;BME280;75210;52.210;20.902;2024-01-15T03:27:31;97819.25;;;0.76;88.63
84936;BME280;75210;52.210;20.902;2024-01-15T03:28:31;97924.00;;;1.37;88.39
84936;BME280;75210;52.210;20.902;2024-01-15T03:29:32;97849.47;;;0.92;88.96
84936;BME280;75210;52.210;20.902;2024-01-15T03:30:33;97924.50;;;1.44;88.08
84936;BME280;75210;52.210;20.902;2024-01-15T03:31:33;97887.16;;;1.31;87.74
84936;BME280;75210;52.210;20.902;2024-01-15T03:32:34;97797.91;;;0.70;87.95
84936;BME280;75210;52.210;20.902;2024-01-15T03:33:34;97913.84;;;1.49;87.81
84936;BME280;75210;52.210;20.902;2024-01-15T03:34:35;97865.31;;;1.19;87.62
84936;BME280;75210;52.210;20.902;2024-01-15T03:35:35;97915.22;;;1.56;87.94
84936;BME280;75210;52.210;20.902;2024-01-15T03:36:35;97860.34;;;1.15;87.22
84936;BME280;75210;52.210;20.902;2024-01-15T03:37:36;97919.03;;;1.49;87.91
84936;BME280;75210;52.210;20.902;2024-01-15T03:38:40;97823.38;;;0.95;87.46
84936;BME280;75210;52.210;20.902;2024-01-15T03:39:43;97869.97;;;1.28;87.39
84936;BME280;75210;52.210;20.902;2024-01-15T03:40:44;97784.28;;;0.83;87.06
84936;BME280;75210;52.210;20.902;2024-01-15T03:41:44;97889.31;;;1.54;86.47
84936;BME280;75210;52.210;20.902;2024-01-15T03:42:45;97907.50;;;1.54;86.99
84936;BME280;75210;52.210;20.902;2024-01-15T03:43:45;97871.34;;;1.35;86.41
84936;BME280;75210;52.210;20.902;2024-01-15T03:44:46;97917.56;;;1.60;86.14
84936;BME280;75210;52.210;20.902;2024-01-15T03:45:46;97901.22;;;1.58;86.76
84936;BME280;75210;52.210;20.902;2024-01-15T03:46:47;97784.84;;;0.88;86.69
84936;BME280;75210;52.210;20.902;2024-01-15T03:47:47;97909.75;;;1.60;86.92
84936;BME280;75210;52.210;20.902;2024-01-15T03:48:48;97891.28;;;1.35;86.87
84936;BME280;75210;52.210;20.902;2024-01-15T03:49:48;97894.03;;;1.48;86.88
84936;BME280;75210;52.210;20.902;2024-01-15T03:50:48;97889.84;;;1.45;86.99
84936;BME280;75210;52.210;20.902;2024-01-15T03:51:49;97893.66;;;1.54;86.69
84936;BME280;75210;52.210;20.902;2024-01-15T03:52:49;97852.31;;;1.19;86.73
84936;BME280;75210;52.210;20.902;2024-01-15T03:53:50;97865.31;;;1.19;86.97
84936;BME280;75210;52.210;20.902;2024-01-15T03:54:53;97861.94;;;1.17;87.35
84936;BME280;75210;52.210;20.902;2024-01-15T03:55:53;97902.75;;;1.47;87.04
84936;BME280;75210;52.210;20.902;2024-01-15T03:56:53;97836.06;;;1.16;87.18
84936;BME280;75210;52.210;20.902;2024-01-15T03:57:54;97891.00;;;1.39;87.65
84936;BME280;75210;52.210;20.902;2024-01-15T03:58:54;97766.88;;;0.69;87.49
84936;BME280;75210;52.210;20.902;2024-01-15T03:59:55;97756.41;;;0.70;87.68
84936;BME280;75210;52.210;20.902;2024-01-15T04:00:56;97839.91;;;1.24;86.96
84936;BME280;75210;52.210;20.902;2024-01-15T04:01:56;97878.09;;;1.54;86.32
84936;BME280;75210;52.210;20.902;2024-01-15T04:02:56;97813.78;;;1.12;87.07
84936;BME280;75210;52.210;20.902;2024-01-15T04:03:57;97765.69;;;0.90;86.54
84936;BME280;75210;52.210;20.902;2024-01-15T04:04:57;97766.13;;;0.83;86.75
84936;BME280;75210;52.210;20.902;2024-01-15T04:05:58;97755.66;;;0.84;86.08
84936;BME280;75210;52.210;20.902;2024-01-15T04:06:58;97814.38;;;1.17;86.43
84936;BME280;75210;52.210;20.902;2024-01-15T04:07:59;97879.75;;;1.55;86.31
84936;BME280;75210;52.210;20.902;2024-01-15T04:08:59;97867.53;;;1.57;86.33
84936;BME280;75210;52.210;20.902;2024-01-15T04:10:02;97748.88;;;0.82;86.10
84936;BME280;75210;52.210;20.902;2024-01-15T04:11:02;97801.94;;;1.07;86.31
84936;BME280;75210;52.210;20.902;2024-01-15T04:12:03;97826.19;;;1.22;86.49
84936;BME280;75210;52.210;20.902;2024-01-15T04:13:04;97798.91;;;1.15;86.34
84936;BME280;75210;52.210;20.902;2024-01-15T04:14:04;97823.09;;;1.31;86.23
84936;BME280;75210;52.210;20.902;2024-01-15T04:15:05;97808.44;;;1.30;86.16
84936;BME280;75210;52.210;20.902;2024-01-15T04:16:06;97744.00;;;0.91;85.73
84936;BME280;75210;52.210;20.902;2024-01-15T04:17:06;97730.78;;;0.80;86.04
84936;BME280;75210;52.210;20.902;2024-01-15T04:18:07;97827.34;;;1.32;85.78
84936;BME280;75210;52.210;20.902;2024-01-15T04:19:07;97773.09;;;1.12;85.89
84936;BME280;75210;52.210;20.902;2024-01-15T04:20:08;97848.13;;;1.48;86.34
84936;BME280;75210;52.210;20.902;2024-01-15T04:21:09;97765.59;;;1.07;86.01
84936;BME280;75210;52.210;20.902;2024-01-15T04:22:09;97711.78;;;0.80;86.18
84936;BME280;75210;52.210;20.902;2024-01-15T04:23:10;97781.84;;;1.11;86.29
84936;BME280;75210;52.210;20.902;2024-01-15T04:24:10;97817.38;;;1.25;86.99
84936;BME280;75210;52.210;20.902;2024-01-15T04:25:12;97719.94;;;0.74;86.20
84936;BME280;75210;52.210;20.902;2024-01-15T04:26:13;97841.56;;;1.57;85.88
84936;BME280;75210;52.210;20.902;2024-01-15T04:27:13;97787.59;;;1.16;86.42
84936;BME280;75210;52.210;20.902;2024-01-15T04:28:14;97728.03;;;0.83;85.68
84936;BME280;75210;52.210;20.902;2024-01-15T04:29:15;97792.69;;;1.33;85.93
84936;BME280;75210;52.210;20.902;2024-01-15T04:30:15;97815.06;;;1.50;85.61
84936;BME280;75210;52.210;20.902;2024-01-15T04:31:23;97762.47;;;1.17;85.54
84936;BME280;75210;52.210;20.902;2024-01-15T04:32:24;97820.78;;;1.57;85.46
84936;BME280;75210;52.210;20.902;2024-01-15T04:33:24;97776.44;;;1.30;85.61
84936;BME280;75210;52.210;20.902;2024-01-15T04:34:24;97698.00;;;0.79;85.45
84936;BME280;75210;52.210;20.902;2024-01-15T04:35:26;97751.03;;;1.05;86.00
84936;BME280;75210;52.210;20.902;2024-01-15T04:36:27;97821.63;;;1.57;85.51
84936;BME280;75210;52.210;20.902;2024-01-15T04:37:27;97823.63;;;1.52;85.50
84936;BME280;75210;52.210;20.902;2024-01-15T04:38:28;97764.97;;;1.18;86.41
84936;BME280;75210;52.210;20.902;2024-01-15T04:39:29;97816.94;;;1.48;86.46
84936;BME280;75210;52.210;20.902;2024-01-15T04:40:31;97805.59;;;1.49;85.58
84936;BME280;75210;52.210;20.902;2024-01-15T04:41:31;97812.91;;;1.58;84.65
84936;BME280;75210;52.210;20.902;2024-01-15T04:42:31;97817.25;;;1.58;85.42
84936;BME280;75210;52.210;20.902;2024-01-15T04:43:32;97769.22;;;1.35;85.13
84936;BME280;75210;52.210;20.902;2024-01-15T04:44:32;97759.34;;;1.26;85.41
84936;BME280;75210;52.210;20.902;2024-01-15T04:45:33;97674.72;;;0.78;84.86
84936;BME280;75210;52.210;20.902;2024-01-15T04:46:33;97753.97;;;1.29;84.61
84936;BME280;75210;52.210;20.902;2024-01-15T04:47:34;97800.84;;;1.57;84.61
84936;BME280;75210;52.210;20.902;2024-01-15T04:48:34;97759.25;;;1.27;85.40
84936;BME280;75210;52.210;20.902;2024-01-15T04:49:35;97693.13;;;0.89;84.85
84936;BME280;75210;52.210;20.902;2024-01-15T04:50:35;97681.25;;;0.85;84.83
84936;BME280;75210;52.210;20.902;2024-01-15T04:51:36;97685.09;;;0.78;84.86
84936;BME280;75210;52.210;20.902;2024-01-15T04:52:36;97773.38;;;1.37;85.60
84936;BME280;75210;52.210;20.902;2024-01-15T04:53:37;97712.94;;;1.05;84.75
84936;BME280;75210;52.210;20.902;2024-01-15T04:54:38;97762.44;;;1.32;84.48
84936;BME280;75210;52.210;20.902;2024-01-15T04:55:41;97770.06;;;1.35;84.69
84936;BME280;75210;52.210;20.902;2024-01-15T04:56:42;97781.09;;;1.39;84.74
84936;BME280;75210;52.210;20.902;2024-01-15T04:57:42;97688.00;;;0.87;84.30
84936;BME280;75210;52.210;20.902;2024-01-15T04:58:46;97688.22;;;0.84;84.96
84936;BME280;75210;52.210;20.902;2024-01-15T04:59:47;97708.50;;;1.07;83.82
84936;BME280;75210;52.210;20.902;2024-01-15T05:00:47;97748.25;;;1.38;84.03
84936;BME280;75210;52.210;20.902;2024-01-15T05:01:48;97786.25;;;1.55;84.56
84936;BME280;75210;52.210;20.902;2024-01-15T05:02:48;97782.50;;;1.44;84.20
84936;BME280;75210;52.210;20.902;2024-01-15T05:03:49;97806.59;;;1.62;83.96
84936;BME280;75210;52.210;20.902;2024-01-15T05:04:49;97696.88;;;0.99;84.83
84936;BME280;75210;52.210;20.902;2024-01-15T05:05:49;97799.53;;;1.64;84.05
84936;BME280;75210;52.210;20.902;2024-01-15T05:06:50;97721.03;;;1.15;84.41
84936;BME280;75210;52.210;20.902;2024-01-15T05:07:50;97778.00;;;1.48;84.80
84936;BME280;75210;52.210;20.902;2024-01-15T05:08:51;97738.50;;;1.27;83.96
84936;BME280;75210;52.210;20.902;2024-01-15T05:09:51;97803.59;;;1.54;84.52
84936;BME280;75210;52.210;20.902;2024-01-15T05:10:53;97684.91;;;0.96;83.61
84936;BME280;75210;52.210;20.902;2024-01-15T05:11:57;97799.53;;;1.64;83.78
84936;BME280;75210;52.210;20.902;2024-01-15T05:12:57;97787.09;;;1.55;85.16
84936;BME280;75210;52.210;20.902;2024-01-15T05:13:58;97668.28;;;0.85;84.55
84936;BME280;75210;52.210;20.902;2024-01-15T05:14:59;97664.50;;;0.90;84.33
84936;BME280;75210;52.210;20.902;2024-01-15T05:15:59;97742.75;;;1.28;83.89
84936;BME280;75210;52.210;20.902;2024-01-15T05:17:00;97788.91;;;1.69;84.36
84936;BME280;75210;52.210;20.902;2024-01-15T05:18:00;97744.31;;;1.47;83.40
84936;BME280;75210;52.210;20.902;2024-01-15T05:19:01;97659.97;;;0.94;83.29
84936;BME280;75210;52.210;20.902;2024-01-15T05:20:01;97725.28;;;1.16;84.41
84936;BME280;75210;52.210;20.902;2024-01-15T05:21:02;97780.69;;;1.47;84.64
84936;BME280;75210;52.210;20.902;2024-01-15T05:22:03;97753.91;;;1.30;84.99